Time;durP1;ratioP1;P1;durP2;ratioP2;P2;SDS_P1;SDS_P2;PMS_P1;PMS_P2;Temp;Humidity;BMP_temperature;BMP_pressure;BME280_temperature;BME280_humidity;BME280_pressure;Samples;Min_cycle;Max_cycle;Signal;HPM_P1;HPM_P2
2023/05/10 00:00:39;;;;;;;;;1.00;1.00;;;;;15.02;62.84;100488.47;4956104;28;45364;-63
2023/05/10 00:03:05;;;;;;;;;2.00;0.00;;;;;15.03;62.98;100495.47;4952880;28;46113;-62
2023/05/10 00:05:31;;;;;;;;;0.67;0.67;;;;;14.96;63.42;100494.09;4953773;28;45451;-62
2023/05/10 00:07:57;;;;;;;;;3.00;2.00;;;;;14.97;63.43;100493.16;4955057;28;45446;-63
2023/05/10 00:10:22;;;;;;;;;3.00;0.00;;;;;14.94;63.24;100499.50;4955718;28;45672;-61
2023/05/10 00:12:47;;;;;;;;;3.00;1.33;;;;;14.89;62.64;100498.88;4954788;28;46618;-62
2023/05/10 00:15:13;;;;;;;;;1.00;1.00;;;;;14.89;62.62;100498.88;4954876;28;45539;-62
2023/05/10 00:17:38;;;;;;;;;0.33;0.33;;;;;14.82;62.00;100494.84;4955883;28;45434;-61
2023/05/10 00:20:04;;;;;;;;;2.00;0.67;;;;;14.87;62.09;100502.56;4955906;28;45436;-63
2023/05/10 00:22:31;;;;;;;;;1.67;1.67;;;;;14.81;61.34;100493.16;4953393;28;47543;-61
2023/05/10 00:24:56;;;;;;;;;1.67;1.00;;;;;14.83;61.89;100498.34;4955722;28;45521;-63
2023/05/10 00:27:22;;;;;;;;;1.67;0.00;;;;;14.80;60.82;100499.38;4955499;28;45379;-62
2023/05/10 00:29:47;;;;;;;;;3.00;1.00;;;;;14.82;60.88;100494.84;4955389;28;45567;-61
2023/05/10 00:32:13;;;;;;;;;0.00;0.00;;;;;14.87;59.41;100492.81;4954641;28;71057;-61
2023/05/10 00:34:39;;;;;;;;;1.00;0.00;;;;;14.77;60.10;100489.78;4954618;28;45466;-63
2023/05/10 00:37:04;;;;;;;;;0.00;0.00;;;;;14.78;59.94;100494.19;4955601;28;45499;-62
2023/05/10 00:39:30;;;;;;;;;0.00;0.00;;;;;14.74;60.95;100497.91;4955387;28;45419;-64
2023/05/10 00:41:55;;;;;;;;;0.00;0.00;;;;;14.74;60.71;100499.72;4954697;28;67575;-61
2023/05/10 00:44:20;;;;;;;;;2.00;1.67;;;;;14.75;60.72;100504.94;4955253;28;46939;-63
2023/05/10 00:46:47;;;;;;;;;1.33;1.33;;;;;14.71;60.34;100494.59;4955125;28;45396;-62
2023/05/10 00:49:13;;;;;;;;;0.67;0.67;;;;;14.76;60.48;100508.44;4955263;28;45568;-62
2023/05/10 00:51:38;;;;;;;;;1.00;0.00;;;;;14.73;59.99;100509.44;4958054;28;45636;-63
2023/05/10 00:54:05;;;;;;;;;0.00;0.00;;;;;14.70;58.99;100500.84;4958462;28;45525;-61
2023/05/10 00:56:30;;;;;;;;;0.00;0.00;;;;;14.71;60.19;100502.53;4958935;28;45533;-63
2023/05/10 00:58:56;;;;;;;;;0.33;0.33;;;;;14.75;59.70;100519.97;4957690;28;45676;-63
2023/05/10 01:01:22;;;;;;;;;1.00;1.00;;;;;14.67;59.81;100509.78;4958159;28;46227;-61
2023/05/10 01:03:47;;;;;;;;;0.00;0.00;;;;;14.69;58.90;100521.13;4954925;28;45394;-63
2023/05/10 01:06:13;;;;;;;;;0.00;0.00;;;;;14.67;59.47;100525.66;4957605;28;45539;-61
2023/05/10 01:08:39;;;;;;;;;0.00;0.00;;;;;14.70;58.95;100525.50;4957048;28;45569;-63
2023/05/10 01:11:05;;;;;;;;;1.67;1.00;;;;;14.61;59.36;100519.84;4958376;28;46390;-61
2023/05/10 01:13:38;;;;;;;;;1.67;0.00;;;;;14.52;59.59;100514.09;4957161;28;45315;-61
2023/05/10 01:16:04;;;;;;;;;0.00;0.00;;;;;14.60;58.96;100523.44;4958434;28;45486;-63
2023/05/10 01:18:33;;;;;;;;;0.00;0.00;;;;;14.55;59.06;100515.72;4958372;28;45482;-64
2023/05/10 01:21:14;;;;;;;;;0.67;0.00;;;;;14.56;59.60;100512.13;4958262;28;45529;-61
2023/05/10 01:24:25;;;;;;;;;1.00;0.00;;;;;14.57;58.70;100511.22;4958248;28;45466;-62
2023/05/10 01:27:17;;;;;;;;;1.33;0.00;;;;;14.63;58.72;100515.31;4951263;28;45525;-62
2023/05/10 01:30:10;;;;;;;;;2.33;0.67;;;;;14.63;59.02;100524.13;4946240;28;45557;-62
2023/05/10 01:33:04;;;;;;;;;0.00;0.00;;;;;14.58;58.07;100529.63;4956072;28;45419;-63
2023/05/10 01:35:39;;;;;;;;;0.00;0.00;;;;;14.46;59.23;100519.69;4956587;28;45506;-62
2023/05/10 01:38:13;;;;;;;;;0.00;0.00;;;;;14.41;59.51;100519.06;4954740;28;45510;-61
2023/05/10 01:40:56;;;;;;;;;0.00;0.00;;;;;14.44;58.76;100520.72;4953086;28;45313;-62
2023/05/10 01:43:30;;;;;;;;;0.00;0.00;;;;;14.30;59.25;100518.78;4956709;28;47227;-61
2023/05/10 01:46:10;;;;;;;;;0.00;0.00;;;;;14.33;59.12;100522.13;4949073;28;45502;-62
2023/05/10 01:48:40;;;;;;;;;1.00;1.00;;;;;14.38;59.17;100527.19;4957519;28;45391;-62
2023/05/10 01:51:06;;;;;;;;;0.00;0.00;;;;;14.40;58.88;100520.03;4957735;28;45442;-62
2023/05/10 01:53:35;;;;;;;;;0.00;0.00;;;;;14.35;59.31;100522.91;4957725;28;45440;-61
2023/05/10 01:56:02;;;;;;;;;1.67;0.00;;;;;14.34;59.05;100515.03;4956562;28;45458;-61
2023/05/10 01:58:32;;;;;;;;;0.00;0.00;;;;;14.38;58.58;100513.09;4957850;28;45427;-63
2023/05/10 02:01:01;;;;;;;;;0.00;0.00;;;;;14.34;59.63;100517.69;4956631;28;45356;-63
2023/05/10 02:03:29;;;;;;;;;2.00;0.33;;;;;14.30;58.96;100524.94;4971351;28;47131;-62
2023/05/10 02:05:55;;;;;;;;;0.33;0.33;;;;;14.21;59.54;100514.84;4956879;28;45523;-63
2023/05/10 02:08:22;;;;;;;;;2.00;0.00;;;;;14.26;59.53;100536.59;4957962;28;45494;-61
2023/05/10 02:10:50;;;;;;;;;0.00;0.00;;;;;14.24;59.21;100540.25;4956539;28;45317;-61
2023/05/10 02:13:17;;;;;;;;;0.67;0.00;;;;;14.24;59.26;100542.88;4956139;28;47761;-62
2023/05/10 02:15:47;;;;;;;;;0.00;0.00;;;;;14.10;60.29;100535.66;4957382;28;45529;-63
2023/05/10 02:18:13;;;;;;;;;0.33;0.00;;;;;14.14;59.13;100542.53;4957390;28;45383;-62
2023/05/10 02:20:39;;;;;;;;;0.00;0.00;;;;;14.08;59.35;100524.34;4957712;28;45419;-61
2023/05/10 02:23:06;;;;;;;;;0.67;0.00;;;;;14.08;59.67;100525.19;4955712;28;46404;-63
2023/05/10 02:25:32;;;;;;;;;0.00;0.00;;;;;14.21;59.56;100536.00;4956583;28;45418;-62
2023/05/10 02:28:00;;;;;;;;;1.00;0.00;;;;;14.23;58.77;100533.25;4956146;28;45466;-63
2023/05/10 02:30:27;;;;;;;;;0.00;0.00;;;;;14.29;59.51;100535.56;4957193;28;45422;-63
2023/05/10 02:32:53;;;;;;;;;0.67;0.00;;;;;14.27;59.07;100545.41;4957094;28;45344;-61
2023/05/10 02:35:19;;;;;;;;;0.33;0.00;;;;;14.27;58.71;100540.13;4956874;28;45344;-62
2023/05/10 02:37:46;;;;;;;;;0.00;0.00;;;;;14.28;59.33;100534.72;4956360;28;45326;-63
2023/05/10 02:40:13;;;;;;;;;0.00;0.00;;;;;14.27;58.93;100525.09;4957337;28;45490;-61
2023/05/10 02:42:42;;;;;;;;;0.00;0.00;;;;;14.27;58.92;100534.81;4957019;28;45484;-63
2023/05/10 02:45:11;;;;;;;;;0.00;0.00;;;;;14.26;59.15;100531.28;4956052;28;45542;-63
2023/05/10 02:47:37;;;;;;;;;0.00;0.00;;;;;14.32;59.52;100540.72;4957636;28;45468;-63
2023/05/10 02:50:03;;;;;;;;;0.00;0.00;;;;;14.32;59.07;100538.94;4956047;28;45427;-61
2023/05/10 02:52:44;;;;;;;;;0.00;0.00;;;;;14.34;59.71;100523.81;4956267;28;46110;-63
2023/05/10 02:55:13;;;;;;;;;1.00;0.00;;;;;14.42;59.11;100533.16;4953550;28;45569;-63
2023/05/10 02:57:58;;;;;;;;;0.00;0.00;;;;;14.45;58.85;100523.25;4956940;28;45471;-61
2023/05/10 03:00:24;;;;;;;;;0.00;0.00;;;;;14.43;58.76;100511.06;4956574;28;45491;-63
2023/05/10 03:02:50;;;;;;;;;0.00;0.00;;;;;14.44;59.71;100515.41;4955117;28;45502;-63
2023/05/10 03:05:15;;;;;;;;;0.00;0.00;;;;;14.45;59.48;100511.81;4956528;28;48009;-62
2023/05/10 03:07:40;;;;;;;;;0.33;0.00;;;;;14.44;58.84;100503.03;4956451;28;46008;-63
2023/05/10 03:10:06;;;;;;;;;0.00;0.00;;;;;14.44;59.81;100508.31;4956008;28;45534;-63
2023/05/10 03:12:47;;;;;;;;;0.00;0.00;;;;;14.43;59.93;100509.28;4955629;28;46107;-61
2023/05/10 03:15:38;;;;;;;;;0.00;0.00;;;;;14.41;59.88;100510.28;4962054;28;45542;-63
2023/05/10 03:18:11;;;;;;;;;0.00;0.00;;;;;14.44;59.37;100510.97;4956650;28;45511;-63
2023/05/10 03:20:43;;;;;;;;;1.67;0.67;;;;;14.39;59.76;100514.78;4955716;28;45436;-61
2023/05/10 03:23:47;;;;;;;;;0.00;0.00;;;;;14.38;59.78;100519.25;4956354;28;46004;-62
2023/05/10 03:26:23;;;;;;;;;0.00;0.00;;;;;14.43;59.53;100519.84;4955829;28;45522;-61
2023/05/10 03:28:49;;;;;;;;;0.00;0.00;;;;;14.42;60.45;100519.91;4955581;28;45495;-63
2023/05/10 03:31:15;;;;;;;;;0.00;0.00;;;;;14.42;59.44;100525.22;4955432;28;45600;-63
2023/05/10 03:33:51;;;;;;;;;1.33;0.67;;;;;14.35;59.67;100514.97;4956216;28;46192;-61
2023/05/10 03:36:16;;;;;;;;;2.00;1.00;;;;;14.35;59.99;100509.66;4954775;28;45610;-63
2023/05/10 03:38:42;;;;;;;;;1.00;0.00;;;;;14.30;60.20;100516.13;4956069;28;45402;-62
2023/05/10 03:41:07;;;;;;;;;0.00;0.00;;;;;14.28;60.58;100510.91;4955468;28;45427;-63
2023/05/10 03:43:32;;;;;;;;;0.67;0.67;;;;;14.30;60.21;100519.63;4956094;28;46136;-61
2023/05/10 03:45:58;;;;;;;;;1.00;0.00;;;;;14.28;60.67;100515.34;4956229;28;45495;-62
2023/05/10 03:48:23;;;;;;;;;0.00;0.00;;;;;14.32;60.73;100520.41;4956367;28;48679;-61
2023/05/10 03:50:49;;;;;;;;;0.00;0.00;;;;;14.30;61.19;100510.84;4956015;28;45612;-62
2023/05/10 03:53:15;;;;;;;;;0.00;0.00;;;;;14.33;61.20;100515.97;4955214;28;45413;-63
2023/05/10 03:55:40;;;;;;;;;0.00;0.00;;;;;14.32;61.44;100520.41;4956023;28;45487;-61
2023/05/10 03:58:05;;;;;;;;;0.00;0.00;;;;;14.33;61.78;100521.25;4955834;28;55218;-62
2023/05/10 04:00:31;;;;;;;;;0.00;0.00;;;;;14.33;61.16;100513.31;4955990;28;45497;-60
2023/05/10 04:02:56;;;;;;;;;0.00;0.00;;;;;14.36;61.81;100515.81;4955685;28;45901;-61
2023/05/10 04:05:22;;;;;;;;;0.00;0.00;;;;;14.28;62.33;100515.34;4954294;28;45467;-63
2023/05/10 04:07:49;;;;;;;;;0.00;0.00;;;;;14.34;62.44;100515.88;4955814;28;45569;-63
2023/05/10 04:10:15;;;;;;;;;0.00;0.00;;;;;14.31;62.02;100509.91;4954481;28;45574;-63
2023/05/10 04:12:41;;;;;;;;;1.00;1.00;;;;;14.35;62.43;100508.81;4955542;28;45518;-63
2023/05/10 04:15:07;;;;;;;;;0.33;0.00;;;;;14.36;62.35;100505.22;4955895;28;45475;-63
2023/05/10 04:17:33;;;;;;;;;0.00;0.00;;;;;14.38;62.59;100502.50;4954773;28;45428;-61
2023/05/10 04:19:58;;;;;;;;;0.00;0.00;;;;;14.42;62.45;100498.75;4955893;28;45382;-63
2023/05/10 04:22:23;;;;;;;;;0.00;0.00;;;;;14.47;62.42;100504.66;4955984;28;45473;-63
2023/05/10 04:24:49;;;;;;;;;1.00;0.00;;;;;14.46;62.19;100500.31;4955293;28;45576;-62
2023/05/10 04:27:14;;;;;;;;;0.00;0.00;;;;;14.45;62.56;100493.28;4959340;28;45421;-64
2023/05/10 04:29:39;;;;;;;;;0.00;0.00;;;;;14.51;62.97;100511.53;4958109;28;45476;-62
2023/05/10 04:32:05;;;;;;;;;0.00;0.00;;;;;14.51;63.08;100509.72;4959050;28;45571;-62
2023/05/10 04:34:30;;;;;;;;;0.00;0.00;;;;;14.54;63.36;100511.38;4958609;28;50932;-61
2023/05/10 04:36:55;;;;;;;;;0.00;0.00;;;;;14.55;63.38;100511.28;4957818;28;45477;-61
2023/05/10 04:39:21;;;;;;;;;0.00;0.00;;;;;14.50;63.02;100512.44;4958497;28;60329;-63
2023/05/10 04:41:46;;;;;;;;;0.00;0.00;;;;;14.52;63.54;100505.28;4955970;28;47110;-63
2023/05/10 04:44:11;;;;;;;;;1.00;0.00;;;;;14.46;64.06;100498.53;4957644;28;45352;-62
2023/05/10 04:46:37;;;;;;;;;0.33;0.00;;;;;14.49;63.44;100503.66;4958884;28;45691;-62
2023/05/10 04:49:02;;;;;;;;;0.00;0.00;;;;;14.46;63.61;100502.97;4959362;28;45664;-62
2023/05/10 04:51:28;;;;;;;;;0.67;0.00;;;;;14.42;63.77;100496.09;4957798;28;46064;-63
2023/05/10 04:53:53;;;;;;;;;1.00;1.00;;;;;14.37;64.75;100493.69;4958639;28;45459;-61
2023/05/10 04:56:18;;;;;;;;;0.00;0.00;;;;;14.39;64.03;100501.56;4958911;28;45398;-63
2023/05/10 04:58:44;;;;;;;;;1.00;1.00;;;;;14.38;63.95;100489.28;4958703;28;45570;-62
2023/05/10 05:01:10;;;;;;;;;0.67;0.67;;;;;14.34;64.26;100483.28;4958250;28;46290;-61
2023/05/10 05:03:36;;;;;;;;;0.00;0.00;;;;;14.41;64.55;100487.31;4957328;28;45427;-62
2023/05/10 05:06:02;;;;;;;;;0.00;0.00;;;;;14.39;64.27;100494.47;4958745;28;45531;-62
2023/05/10 05:08:27;;;;;;;;;0.00;0.00;;;;;14.37;64.81;100496.34;4958537;28;45600;-63
2023/05/10 05:10:53;;;;;;;;;0.00;0.00;;;;;14.42;64.95;100493.47;4958137;28;45482;-61
2023/05/10 05:13:18;;;;;;;;;0.67;0.67;;;;;14.43;65.32;100501.34;4955525;28;45682;-62
2023/05/10 05:15:43;;;;;;;;;1.33;1.00;;;;;14.40;65.21;100497.97;4958413;28;45575;-61
2023/05/10 05:18:09;;;;;;;;;1.33;1.33;;;;;14.43;65.23;100511.06;4956870;28;45673;-60
2023/05/10 05:20:34;;;;;;;;;0.00;0.00;;;;;14.38;64.88;100497.22;4949576;28;46012;-63
2023/05/10 05:23:00;;;;;;;;;0.33;0.33;;;;;14.41;65.50;100502.34;4961405;28;45473;-61
2023/05/10 05:25:25;;;;;;;;;1.33;1.00;;;;;14.39;65.52;100496.28;4957312;28;45392;-62
2023/05/10 05:27:51;;;;;;;;;2.00;0.33;;;;;14.33;65.68;100498.31;4957928;28;45589;-61
2023/05/10 05:30:16;;;;;;;;;0.67;0.67;;;;;14.32;65.82;100504.53;4957586;28;60920;-63
2023/05/10 05:32:42;;;;;;;;;1.67;1.67;;;;;14.30;66.35;100511.69;4958327;28;45475;-62
2023/05/10 05:35:07;;;;;;;;;1.00;1.00;;;;;14.31;66.58;100520.47;4946121;28;45516;-62
2023/05/10 05:37:33;;;;;;;;;1.33;1.33;;;;;14.27;66.27;100509.22;4937830;28;45523;-62
2023/05/10 05:39:58;;;;;;;;;2.67;2.67;;;;;14.26;65.63;100504.84;4947043;28;46066;-62
2023/05/10 05:42:23;;;;;;;;;1.33;0.00;;;;;14.36;66.06;100515.81;4957653;28;45525;-63
2023/05/10 05:44:49;;;;;;;;;0.67;0.67;;;;;14.38;65.66;100518.38;4957259;28;45501;-61
2023/05/10 05:47:14;;;;;;;;;3.00;3.00;;;;;14.34;66.06;100515.03;4956145;28;45468;-62
2023/05/10 05:49:39;;;;;;;;;2.00;2.00;;;;;14.31;65.72;100513.41;4955137;28;46059;-64
2023/05/10 05:52:05;;;;;;;;;2.33;2.33;;;;;14.27;66.48;100517.16;4956454;28;45570;-66
2023/05/10 05:54:31;;;;;;;;;0.67;0.67;;;;;14.32;66.54;100519.56;4956117;28;45407;-63
2023/05/10 05:56:57;;;;;;;;;1.00;1.00;;;;;14.34;66.27;100522.97;4957708;28;45553;-64
2023/05/10 05:59:23;;;;;;;;;4.00;2.00;;;;;14.30;66.71;100524.94;4957335;28;46231;-64
2023/05/10 06:01:48;;;;;;;;;1.00;1.00;;;;;14.24;67.05;100533.19;4956710;28;45489;-62
2023/05/10 06:04:14;;;;;;;;;1.33;1.00;;;;;14.24;67.29;100530.53;4956001;28;45944;-61
2023/05/10 06:06:39;;;;;;;;;3.33;2.00;;;;;14.20;68.39;100531.63;4957500;28;45403;-62
2023/05/10 06:09:05;;;;;;;;;2.00;2.00;;;;;14.19;67.65;100529.06;4957071;28;45372;-64
2023/05/10 06:11:31;;;;;;;;;1.00;1.00;;;;;14.20;67.91;100538.72;4956860;28;58704;-65
2023/05/10 06:13:57;;;;;;;;;3.00;1.67;;;;;14.24;68.56;100542.88;4957617;28;45485;-65
2023/05/10 06:16:23;;;;;;;;;1.67;1.67;;;;;14.22;68.44;100547.44;4957250;28;45481;-60
2023/05/10 06:18:48;;;;;;;;;1.67;1.67;;;;;14.08;69.72;100533.13;4957163;28;45435;-65
2023/05/10 06:21:14;;;;;;;;;2.00;2.00;;;;;14.06;69.60;100534.13;4955993;28;45507;-61
2023/05/10 06:23:40;;;;;;;;;1.00;0.67;;;;;14.11;70.16;100537.41;4957184;28;45459;-62
2023/05/10 06:26:05;;;;;;;;;2.00;2.00;;;;;14.15;70.20;100546.88;4955054;28;45446;-62
2023/05/10 06:28:32;;;;;;;;;1.33;1.33;;;;;14.19;69.67;100545.78;4954695;28;45418;-63
2023/05/10 06:30:57;;;;;;;;;4.00;2.67;;;;;14.18;69.90;100544.06;4955785;28;45568;-63
2023/05/10 06:33:22;;;;;;;;;2.00;1.00;;;;;14.16;69.87;100551.25;4955558;28;45490;-63
2023/05/10 06:35:48;;;;;;;;;2.00;2.00;;;;;14.19;69.71;100548.44;4957309;28;45460;-60
2023/05/10 06:38:13;;;;;;;;;3.00;2.67;;;;;14.20;69.81;100550.13;4956447;28;46232;-68
2023/05/10 06:40:42;;;;;;;;;3.00;3.00;;;;;14.18;69.65;100545.84;4956998;28;45392;-65
2023/05/10 06:43:07;;;;;;;;;2.00;2.00;;;;;14.05;69.86;100527.09;4956376;28;45479;-64
2023/05/10 06:45:32;;;;;;;;;4.00;3.00;;;;;14.23;69.98;100557.91;4956976;28;45419;-65
2023/05/10 06:47:58;;;;;;;;;1.00;1.00;;;;;14.22;69.39;100547.44;4955060;28;45550;-67
2023/05/10 06:50:23;;;;;;;;;1.33;1.33;;;;;14.25;69.67;100553.41;4956177;28;45541;-68
2023/05/10 06:52:48;;;;;;;;;2.00;2.00;;;;;14.24;69.53;100554.34;4955165;28;45378;-65
2023/05/10 06:55:14;;;;;;;;;2.00;1.33;;;;;14.19;69.62;100555.53;4956834;28;45462;-68
2023/05/10 06:57:39;;;;;;;;;3.00;3.00;;;;;14.21;69.85;100558.91;4956332;28;45459;-66
2023/05/10 07:00:05;;;;;;;;;4.00;4.00;;;;;14.26;70.14;100567.47;4956909;28;45371;-64
2023/05/10 07:02:30;;;;;;;;;2.00;2.00;;;;;14.17;70.16;100555.59;4956108;28;45469;-66
2023/05/10 07:04:56;;;;;;;;;3.00;3.00;;;;;14.26;69.77;100557.75;4956478;28;46263;-64
2023/05/10 07:07:21;;;;;;;;;2.33;2.33;;;;;14.20;70.55;100562.50;4954312;28;45590;-65
2023/05/10 07:09:47;;;;;;;;;1.00;1.00;;;;;14.20;70.16;100570.44;4956293;28;45629;-62
2023/05/10 07:12:12;;;;;;;;;2.00;2.00;;;;;14.19;70.72;100577.53;4955757;28;45547;-64
2023/05/10 07:14:37;;;;;;;;;3.67;2.00;;;;;14.21;71.25;100573.03;4956139;28;45594;-64
2023/05/10 07:17:03;;;;;;;;;2.67;2.33;;;;;14.27;70.48;100569.22;4955906;28;46151;-66
2023/05/10 07:19:29;;;;;;;;;2.00;2.00;;;;;14.26;70.31;100570.97;4956006;28;45316;-70
2023/05/10 07:21:55;;;;;;;;;3.67;2.33;;;;;14.30;70.38;100574.34;4956313;28;45407;-66
2023/05/10 07:24:20;;;;;;;;;2.67;2.67;;;;;14.31;70.55;100579.53;4955800;28;45570;-63
2023/05/10 07:26:46;;;;;;;;;2.00;2.00;;;;;14.25;69.94;100579.00;4955238;28;45659;-72
2023/05/10 07:29:11;;;;;;;;;2.00;2.00;;;;;14.21;71.00;100574.78;4955913;28;45407;-71
2023/05/10 07:31:37;;;;;;;;;1.00;1.00;;;;;14.23;70.52;100573.78;4970797;28;45464;-70
2023/05/10 07:34:02;;;;;;;;;4.33;4.33;;;;;14.22;71.25;100571.22;4955090;28;45604;-62
2023/05/10 07:36:27;;;;;;;;;2.00;2.00;;;;;14.25;70.50;100574.56;4954414;28;46281;-62
2023/05/10 07:38:53;;;;;;;;;1.33;1.33;;;;;14.28;71.03;100577.06;4953863;28;45403;-62
2023/05/10 07:41:18;;;;;;;;;2.00;2.00;;;;;14.29;71.22;100588.47;4954668;28;45566;-61
2023/05/10 07:43:44;;;;;;;;;2.00;2.00;;;;;14.26;70.56;100578.91;4953989;28;48411;-60
2023/05/10 07:46:10;;;;;;;;;1.00;1.00;;;;;14.28;70.50;100585.00;4955587;28;45445;-64
2023/05/10 07:48:36;;;;;;;;;4.00;3.00;;;;;14.25;70.81;100577.22;4955275;28;45383;-63
2023/05/10 07:51:02;;;;;;;;;2.00;2.00;;;;;14.22;71.24;100569.44;4955529;28;45419;-63
2023/05/10 07:53:27;;;;;;;;;0.67;0.33;;;;;14.23;70.41;100583.50;4955050;28;45552;-60
2023/05/10 07:55:58;;;;;;;;;1.00;1.00;;;;;14.15;71.02;100583.91;4954992;28;45960;-64
2023/05/10 07:58:24;;;;;;;;;3.33;2.33;;;;;14.19;70.97;100580.19;4955609;28;45499;-64
2023/05/10 08:00:50;;;;;;;;;2.00;2.00;;;;;14.22;70.99;100584.47;4957079;28;45460;-63
2023/05/10 08:03:15;;;;;;;;;0.67;0.67;;;;;14.26;70.35;100589.50;4958924;28;45718;-65
2023/05/10 08:05:41;;;;;;;;;4.00;1.33;;;;;14.30;70.67;100596.34;4957533;28;46297;-66
2023/05/10 08:08:06;;;;;;;;;2.00;2.00;;;;;14.28;71.41;100589.44;4959202;28;45362;-65
2023/05/10 08:10:32;;;;;;;;;1.67;1.67;;;;;14.30;71.86;100593.72;4957228;28;45464;-59
2023/05/10 08:12:58;;;;;;;;;1.67;1.67;;;;;14.33;70.96;100585.63;4958956;28;45460;-62
2023/05/10 08:15:24;;;;;;;;;4.00;3.00;;;;;14.29;71.15;100588.47;4958939;28;45372;-64
2023/05/10 08:17:50;;;;;;;;;2.67;2.67;;;;;14.30;71.22;100592.88;4956328;28;45439;-61
2023/05/10 08:20:18;;;;;;;;;3.00;3.00;;;;;14.29;71.51;100591.13;4958802;28;45501;-64
2023/05/10 08:22:44;;;;;;;;;2.00;2.00;;;;;14.33;71.09;100588.25;4956336;28;45637;-63
2023/05/10 08:25:10;;;;;;;;;2.00;2.00;;;;;14.38;71.19;100598.63;4958846;28;45680;-62
2023/05/10 08:27:35;;;;;;;;;3.00;2.00;;;;;14.41;71.17;100595.81;4958653;28;45412;-61
2023/05/10 08:30:00;;;;;;;;;2.00;2.00;;;;;14.43;71.35;100596.59;4958515;28;45367;-61
2023/05/10 08:32:26;;;;;;;;;2.33;1.67;;;;;14.44;70.26;100602.72;4957898;28;45688;-62
2023/05/10 08:34:51;;;;;;;;;1.00;1.00;;;;;14.46;70.29;100601.72;4955903;28;46053;-63
2023/05/10 08:37:16;;;;;;;;;2.00;2.00;;;;;14.49;70.87;100604.22;4958656;28;51991;-64
2023/05/10 08:39:42;;;;;;;;;3.00;2.00;;;;;14.52;70.52;100614.66;4958558;28;45815;-63
2023/05/10 08:42:08;;;;;;;;;2.00;2.00;;;;;14.52;70.67;100613.78;4958619;28;45560;-63
2023/05/10 08:44:36;;;;;;;;;1.67;1.67;;;;;14.53;69.95;100619.03;4958195;28;46129;-63
2023/05/10 08:47:06;;;;;;;;;2.00;1.67;;;;;14.55;70.26;100611.84;4958081;28;45592;-59
2023/05/10 08:49:32;;;;;;;;;1.00;1.00;;;;;14.54;69.69;100615.44;4958505;28;45478;-67
2023/05/10 08:52:03;;;;;;;;;2.67;2.67;;;;;14.63;70.44;100623.84;4958257;28;45408;-62
2023/05/10 08:54:30;;;;;;;;;3.00;3.00;;;;;14.61;69.91;100623.06;4957121;28;47073;-63
2023/05/10 08:56:56;;;;;;;;;3.33;3.33;;;;;14.68;70.77;100638.56;4957991;28;45455;-62
2023/05/10 08:59:21;;;;;;;;;4.00;4.00;;;;;14.71;71.34;100637.53;4957304;28;45482;-62
2023/05/10 09:01:49;;;;;;;;;7.00;5.00;;;;;14.71;70.22;100643.69;4956692;28;45482;-65
2023/05/10 09:04:14;;;;;;;;;4.00;4.00;;;;;14.77;70.84;100638.06;4958033;28;46300;-64
2023/05/10 09:06:39;;;;;;;;;5.00;5.00;;;;;14.80;69.64;100642.34;4958123;28;45391;-63
2023/05/10 09:09:05;;;;;;;;;5.00;5.00;;;;;14.79;69.20;100643.28;4958292;28;45447;-63
2023/05/10 09:11:31;;;;;;;;;5.33;5.33;;;;;14.80;69.40;100659.09;4957178;28;45595;-62
2023/05/10 09:13:56;;;;;;;;;4.00;4.00;;;;;14.78;69.14;100649.53;4957357;28;45407;-64
2023/05/10 09:16:23;;;;;;;;;4.67;4.33;;;;;14.83;69.22;100657.22;4957277;28;46168;-64
2023/05/10 09:18:49;;;;;;;;;5.00;5.00;;;;;14.88;69.15;100657.84;4955333;28;45446;-65
2023/05/10 09:21:14;;;;;;;;;10.00;7.00;;;;;14.93;68.98;100664.59;4955871;28;45534;-64
2023/05/10 09:23:43;;;;;;;;;6.33;4.67;;;;;14.96;69.01;100666.22;4954903;28;47134;-65
2023/05/10 09:26:08;;;;;;;;;7.33;6.67;;;;;14.98;68.32;100665.22;4957944;28;45447;-65
2023/05/10 09:28:49;;;;;;;;;6.67;5.67;;;;;14.98;67.95;100667.00;4948466;28;45430;-66
2023/05/10 09:31:14;;;;;;;;;4.00;4.00;;;;;14.99;68.81;100674.00;4949453;28;45458;-65
2023/05/10 09:33:47;;;;;;;;;6.67;4.33;;;;;14.89;69.29;100678.09;4956961;28;46089;-65
2023/05/10 09:36:13;;;;;;;;;5.67;5.67;;;;;14.92;69.45;100673.50;4952702;28;45423;-65
2023/05/10 09:38:49;;;;;;;;;4.33;3.67;;;;;14.96;68.98;100679.47;4953656;28;45494;-65
2023/05/10 09:41:18;;;;;;;;;4.00;4.00;;;;;14.98;68.71;100682.91;4950917;28;45547;-65
2023/05/10 09:43:43;;;;;;;;;6.67;6.00;;;;;15.04;69.33;100682.56;4956125;28;45467;-65
2023/05/10 09:46:09;;;;;;;;;6.00;6.00;;;;;15.08;68.76;100684.13;4949254;28;54945;-63
2023/05/10 09:48:41;;;;;;;;;5.33;5.33;;;;;15.12;68.38;100684.81;4955560;28;45418;-64
2023/05/10 09:51:07;;;;;;;;;9.33;6.00;;;;;15.14;68.34;100689.09;4957868;28;45542;-65
2023/05/10 09:53:32;;;;;;;;;10.00;7.00;;;;;15.17;68.54;100691.59;4956949;28;58983;-62
2023/05/10 09:55:57;;;;;;;;;8.67;8.00;;;;;15.23;69.14;100693.94;4957374;28;49729;-60
2023/05/10 09:58:23;;;;;;;;;6.33;5.33;;;;;15.23;67.93;100695.69;4957456;28;45458;-58
2023/05/10 10:00:51;;;;;;;;;9.00;7.00;;;;;15.25;67.04;100705.28;4956232;28;45526;-58
2023/05/10 10:03:19;;;;;;;;;7.67;4.67;;;;;15.25;66.65;100709.72;4956487;28;45507;-57
2023/05/10 10:05:46;;;;;;;;;6.33;5.33;;;;;15.26;66.49;100703.50;4957187;28;45617;-60
2023/05/10 10:08:12;;;;;;;;;5.67;5.67;;;;;15.27;65.76;100709.66;4957835;28;45506;-60
2023/05/10 10:10:40;;;;;;;;;6.33;6.33;;;;;15.26;66.67;100698.22;4957276;28;45478;-60
2023/05/10 10:13:06;;;;;;;;;4.67;4.67;;;;;15.31;66.51;100706.75;4956140;28;47027;-60
2023/05/10 10:15:33;;;;;;;;;10.67;7.67;;;;;15.30;66.10;100707.69;4957508;28;45523;-60
2023/05/10 10:17:59;;;;;;;;;6.00;5.00;;;;;15.31;66.89;100697.94;4957340;28;45502;-60
2023/05/10 10:20:24;;;;;;;;;7.33;6.33;;;;;15.31;67.09;100700.59;4956725;28;45633;-59
2023/05/10 10:22:50;;;;;;;;;12.33;8.33;;;;;15.28;66.13;100698.13;4956033;28;45579;-59
2023/05/10 10:25:18;;;;;;;;;9.00;7.67;;;;;15.27;66.54;100699.06;4956765;28;45515;-59
2023/05/10 10:28:01;;;;;;;;;7.00;6.33;;;;;15.28;66.38;100708.72;4957154;28;45523;-61
2023/05/10 10:30:43;;;;;;;;;8.33;8.33;;;;;15.32;66.50;100702.34;4957026;28;45478;-59
2023/05/10 10:33:38;;;;;;;;;8.00;6.00;;;;;15.32;64.96;100697.88;4956746;28;45530;-60
2023/05/10 10:36:04;;;;;;;;;6.00;5.67;;;;;15.31;65.30;100700.59;4956700;28;45426;-60
2023/05/10 10:39:02;;;;;;;;;8.33;8.00;;;;;15.34;65.21;100700.44;4957098;28;45379;-57
2023/05/10 10:41:32;;;;;;;;;10.00;7.33;;;;;15.34;65.34;100701.31;4935912;28;45524;-58
2023/05/10 10:44:25;;;;;;;;;8.00;6.33;;;;;15.34;65.87;100700.44;4945619;28;45381;-58
2023/05/10 10:47:05;;;;;;;;;11.33;9.33;;;;;15.31;65.17;100690.84;4956656;28;45518;-61
2023/05/10 10:49:39;;;;;;;;;8.33;8.33;;;;;15.32;64.55;100695.22;4957489;28;45357;-59
2023/05/10 10:52:28;;;;;;;;;5.00;5.00;;;;;15.29;64.53;100708.66;4956767;28;45660;-59
2023/05/10 10:55:10;;;;;;;;;7.00;5.00;;;;;15.30;63.86;100704.19;4956631;28;45407;-59
2023/05/10 10:58:02;;;;;;;;;8.67;6.67;;;;;15.31;63.79;100711.19;4956486;28;45516;-57
2023/05/10 11:00:32;;;;;;;;;7.33;6.33;;;;;15.30;64.05;100710.34;4956498;28;45320;-58
2023/05/10 11:03:16;;;;;;;;;5.67;5.67;;;;;15.30;63.57;100705.03;4956719;28;45424;-58
2023/05/10 11:05:43;;;;;;;;;8.33;7.67;;;;;15.33;64.19;100709.31;4971040;28;45832;-58
2023/05/10 11:08:12;;;;;;;;;11.00;9.00;;;;;15.33;64.53;100699.56;4966127;28;45581;-63
2023/05/10 11:10:39;;;;;;;;;6.67;6.00;;;;;15.36;64.57;100712.66;4955289;28;45418;-59
2023/05/10 11:13:08;;;;;;;;;7.00;7.00;;;;;15.38;63.67;100702.00;4956381;28;45512;-59
2023/05/10 11:15:40;;;;;;;;;14.00;8.00;;;;;15.41;63.07;100701.81;4954959;28;46604;-59
2023/05/10 11:18:18;;;;;;;;;37.00;34.33;;;;;15.43;63.26;100699.94;4955975;28;45499;-59
2023/05/10 11:20:46;;;;;;;;;8.00;7.00;;;;;15.43;63.28;100694.66;4956173;28;45498;-62
2023/05/10 11:23:15;;;;;;;;;7.00;7.00;;;;;15.49;63.42;100696.09;4956062;28;45488;-61
2023/05/10 11:25:45;;;;;;;;;6.00;6.00;;;;;15.54;63.43;100702.03;4955101;28;46198;-61
2023/05/10 11:28:12;;;;;;;;;14.33;12.33;;;;;15.60;63.22;100699.88;4955832;28;45407;-61